createdAt,value
2019-05-10T00:00:16.110Z,65.12
2019-05-10T00:03:02.466Z,55.24
2019-05-10T00:05:49.822Z,66.62
2019-05-10T00:08:35.795Z,76.55
2019-05-10T00:11:29.686Z,68.20
2019-05-10T00:14:04.624Z,56.75
2019-05-10T00:16:32.787Z,52.79
2019-05-10T00:19:00.931Z,71.39
2019-05-10T00:21:29.061Z,66.51
2019-05-10T00:23:57.248Z,56.24
2019-05-10T00:26:25.351Z,57.36
2019-05-10T00:28:53.457Z,70.55
2019-05-10T00:31:21.543Z,72.74
2019-05-10T00:33:49.708Z,75.51
2019-05-10T00:36:17.885Z,64.97
2019-05-10T00:38:46.396Z,74.36
2019-05-10T00:41:14.553Z,74.17
2019-05-10T00:43:42.834Z,74.05
2019-05-10T00:46:10.965Z,74.87
2019-05-10T00:48:39.121Z,74.50
2019-05-10T00:51:07.249Z,74.98
2019-05-10T00:53:35.348Z,75.76
2019-05-10T00:56:03.453Z,75.54
2019-05-10T00:58:31.590Z,72.59
2019-05-10T01:00:59.739Z,76.31
2019-05-10T01:03:27.874Z,74.36
2019-05-10T01:05:56.004Z,76.11
2019-05-10T01:08:24.097Z,76.43
2019-05-10T01:10:52.240Z,76.73
2019-05-10T01:13:20.732Z,69.18
2019-05-10T01:15:49.064Z,77.23
2019-05-10T01:18:17.268Z,76.97
2019-05-10T01:20:45.461Z,77.54
2019-05-10T01:23:13.708Z,77.61
2019-05-10T01:25:41.772Z,77.11
2019-05-10T01:28:09.938Z,62.41
2019-05-10T01:30:38.061Z,72.54
2019-05-10T01:33:06.150Z,74.88
2019-05-10T01:35:34.264Z,79.28
2019-05-10T01:38:02.426Z,74.92
2019-05-10T01:40:30.538Z,78.88
2019-05-10T01:42:58.758Z,63.61
2019-05-10T01:45:26.952Z,77.89
2019-05-10T01:47:55.082Z,79.92
2019-05-10T01:50:23.300Z,78.47
2019-05-10T01:52:51.435Z,76.04
2019-05-10T01:55:19.668Z,77.12
2019-05-10T01:57:47.814Z,65.29
2019-05-10T02:00:16.352Z,70.15
2019-05-10T02:02:44.509Z,76.68
2019-05-10T02:05:13.045Z,77.27
2019-05-10T02:07:41.174Z,78.72
2019-05-10T02:10:09.693Z,79.28
2019-05-10T02:12:37.809Z,68.96
2019-05-10T02:15:06.618Z,79.11
2019-05-10T02:17:34.823Z,76.98
2019-05-10T02:20:03.333Z,76.64
2019-05-10T02:22:31.504Z,78.91
2019-05-10T02:24:59.623Z,68.65
2019-05-10T02:27:27.812Z,78.53
2019-05-10T02:29:55.983Z,78.22
2019-05-10T02:32:24.121Z,78.72
2019-05-10T02:34:52.291Z,79.01
2019-05-10T02:37:20.452Z,66.29
2019-05-10T02:39:48.546Z,77.27
2019-05-10T02:42:16.652Z,78.22
2019-05-10T02:44:44.763Z,77.58
2019-05-10T02:47:12.902Z,77.69
2019-05-10T02:49:41.191Z,73.70
2019-05-10T02:52:09.571Z,76.54
2019-05-10T02:54:37.774Z,77.99
2019-05-10T03:03:09.202Z,77.21
2019-05-10T03:05:57.902Z,75.65
2019-05-10T03:08:26.025Z,76.01
2019-05-10T03:10:58.392Z,76.77
2019-05-10T03:13:50.370Z,73.58
2019-05-10T03:16:22.511Z,70.81
2019-05-10T03:18:53.641Z,75.82
2019-05-10T03:21:23.477Z,75.52
2019-05-10T03:23:51.631Z,75.67
2019-05-10T03:26:19.878Z,70.22
2019-05-10T03:28:48.166Z,70.57
2019-05-10T03:31:16.653Z,73.02
2019-05-10T03:33:44.822Z,69.78
2019-05-10T03:36:13.047Z,74.20
2019-05-10T03:38:41.365Z,75.18
2019-05-10T03:41:09.477Z,65.08
2019-05-10T03:43:37.612Z,72.78
2019-05-10T03:46:05.745Z,66.87
2019-05-10T03:48:33.895Z,74.99
2019-05-10T03:51:02.309Z,67.01
2019-05-10T03:53:30.471Z,67.37
2019-05-10T03:55:58.629Z,62.52
2019-05-10T03:58:26.739Z,62.15
2019-05-10T04:00:54.874Z,70.57
2019-05-10T04:03:22.995Z,61.13
2019-05-10T04:05:51.133Z,65.92
2019-05-10T04:08:19.259Z,62.04
2019-05-10T04:10:47.436Z,67.43
2019-05-10T04:13:15.580Z,73.01
2019-05-10T04:15:43.720Z,70.03
2019-05-10T04:18:11.818Z,72.84
2019-05-10T04:20:39.982Z,65.53
2019-05-10T04:23:08.113Z,66.17
2019-05-10T04:25:36.269Z,75.42
2019-05-10T04:28:04.363Z,61.93
2019-05-10T04:30:32.474Z,74.38
2019-05-10T04:33:00.575Z,70.40
2019-05-10T04:35:28.739Z,65.59
2019-05-10T04:37:56.903Z,61.17
2019-05-10T04:40:25.074Z,76.38
2019-05-10T04:42:53.189Z,64.44
2019-05-10T04:45:21.319Z,68.63
2019-05-10T04:47:49.467Z,71.07
2019-05-10T04:50:17.653Z,75.38
2019-05-10T04:52:45.870Z,73.83
2019-05-10T04:55:13.967Z,62.14
2019-05-10T04:57:50.600Z,63.30
2019-05-10T05:00:12.133Z,75.23
2019-05-10T05:02:40.264Z,75.57
2019-05-10T05:05:09.651Z,74.77
2019-05-10T05:07:37.773Z,76.00
2019-05-10T05:10:06.640Z,75.82
2019-05-10T05:12:34.762Z,69.26
2019-05-10T05:15:02.867Z,72.04
2019-05-10T05:17:30.988Z,69.27
2019-05-10T05:19:59.093Z,63.95
2019-05-10T05:22:27.234Z,68.87
2019-05-10T05:25:01.076Z,60.88
2019-05-10T05:27:25.327Z,73.78
2019-05-10T05:29:53.418Z,74.94
2019-05-10T05:32:21.980Z,64.64
2019-05-10T05:34:50.117Z,73.80
2019-05-10T05:37:18.278Z,62.36
2019-05-10T05:39:46.421Z,68.61
2019-05-10T05:42:14.577Z,74.71
2019-05-10T05:44:42.863Z,74.33
2019-05-10T05:47:10.990Z,70.43
2019-05-10T05:49:39.198Z,63.04
2019-05-10T05:52:07.330Z,71.84
2019-05-10T05:54:35.510Z,63.86
2019-05-10T05:57:03.623Z,74.39
2019-05-10T05:59:31.777Z,73.89
2019-05-10T06:02:00.636Z,69.76
2019-05-10T06:04:30.284Z,71.88
2019-05-10T06:06:59.170Z,66.34
2019-05-10T06:09:31.941Z,72.99
2019-05-10T06:11:58.634Z,65.19
2019-05-10T06:14:26.946Z,68.85
2019-05-10T06:16:55.057Z,63.31
2019-05-10T06:19:29.548Z,70.90
2019-05-10T06:21:58.151Z,71.83
2019-05-10T06:24:22.997Z,65.29
2019-05-10T06:26:51.122Z,66.12
2019-05-10T06:29:19.874Z,72.20
2019-05-10T06:31:48.122Z,74.27
2019-05-10T06:34:16.237Z,68.21
2019-05-10T06:36:44.389Z,69.69
2019-05-10T06:39:12.505Z,69.52
2019-05-10T06:41:40.603Z,70.47
2019-05-10T06:44:08.747Z,63.92
2019-05-10T06:46:36.870Z,65.84
2019-05-10T06:49:08.303Z,68.15
2019-05-10T06:51:35.411Z,72.51
2019-05-10T06:54:03.551Z,73.17
2019-05-10T06:56:31.668Z,66.66
2019-05-10T06:59:12.384Z,70.17
2019-05-10T07:01:29.623Z,73.86
2019-05-10T07:03:57.742Z,67.83
2019-05-10T07:06:25.920Z,72.64
2019-05-10T07:08:58.002Z,63.39
2019-05-10T07:11:24.549Z,69.98
2019-05-10T07:13:53.220Z,63.74
2019-05-10T07:16:24.770Z,73.73
2019-05-10T07:18:54.888Z,69.69
2019-05-10T07:21:21.274Z,74.75
2019-05-10T07:23:49.468Z,64.80
2019-05-10T07:26:24.133Z,64.78
2019-05-10T07:28:51.891Z,68.88
2019-05-10T07:31:17.522Z,65.74
2019-05-10T07:33:45.680Z,70.58
2019-05-10T07:36:15.412Z,71.90
2019-05-10T07:38:44.137Z,66.46
2019-05-10T07:41:12.313Z,72.00
2019-05-10T07:43:40.461Z,69.52
2019-05-10T07:46:09.009Z,71.61
2019-05-10T07:48:41.019Z,66.60
2019-05-10T07:51:07.290Z,72.40
2019-05-10T07:53:35.490Z,65.92
2019-05-10T07:56:06.139Z,68.46
2019-05-10T07:58:38.229Z,73.22
2019-05-10T08:01:03.452Z,71.89
2019-05-10T08:03:35.649Z,73.15
2019-05-10T08:06:02.221Z,73.64
2019-05-10T08:08:30.555Z,75.16
2019-05-10T08:10:59.336Z,66.74
2019-05-10T08:13:28.430Z,65.03
2019-05-10T08:15:56.704Z,71.33
2019-05-10T08:18:26.348Z,72.07
2019-05-10T08:21:01.542Z,74.68
2019-05-10T08:23:43.990Z,65.93
2019-05-10T08:26:20.242Z,72.41
2019-05-10T08:28:44.669Z,72.62
2019-05-10T08:31:12.456Z,74.38
2019-05-10T08:33:44.231Z,72.55
2019-05-10T08:36:36.957Z,74.62
2019-05-10T08:39:10.026Z,74.94
2019-05-10T08:41:32.568Z,75.41
2019-05-10T08:44:04.619Z,69.89
2019-05-10T08:46:40.584Z,75.16
2019-05-10T08:49:02.133Z,77.50
2019-05-10T08:51:32.552Z,76.32
2019-05-10T08:54:01.790Z,74.77
2019-05-10T08:56:30.137Z,72.31
2019-05-10T08:58:58.342Z,74.98
2019-05-10T09:01:30.352Z,75.07
2019-05-10T09:04:01.978Z,73.67
2019-05-10T09:06:26.318Z,74.24
2019-05-10T09:09:01.529Z,72.79
2019-05-10T09:11:24.337Z,73.09
2019-05-10T09:13:53.453Z,73.05
2019-05-10T09:16:23.674Z,71.25
2019-05-10T09:18:53.486Z,70.52
2019-05-10T09:21:22.393Z,72.96
2019-05-10T09:24:01.290Z,69.11
2019-05-10T09:26:22.493Z,68.25
2019-05-10T09:28:55.589Z,64.94
2019-05-10T09:31:22.741Z,66.60
2019-05-10T09:33:54.032Z,64.46
2019-05-10T09:36:23.052Z,67.02
2019-05-10T09:38:52.508Z,66.34
2019-05-10T09:41:22.424Z,68.06
2019-05-10T09:43:50.638Z,66.33
2019-05-10T09:46:22.763Z,65.59
2019-05-10T09:48:54.544Z,67.13
2019-05-10T09:51:27.982Z,67.69
2019-05-10T09:53:48.971Z,65.36
2019-05-10T09:56:17.415Z,66.22
2019-05-10T09:58:48.055Z,66.17
2019-05-10T10:01:21.142Z,67.69
2019-05-10T10:03:47.653Z,67.25
2019-05-10T10:06:15.676Z,67.86
2019-05-10T10:08:51.229Z,68.45
2019-05-10T10:11:15.704Z,67.50
2019-05-10T10:13:48.919Z,65.87
2019-05-10T10:16:14.862Z,62.74
2019-05-10T10:18:43.323Z,64.13
2019-05-10T10:21:13.242Z,65.23
2019-05-10T10:23:41.459Z,62.76
2019-05-10T10:26:12.610Z,63.74
2019-05-10T10:28:54.519Z,66.01
2019-05-10T10:31:29.464Z,63.98
2019-05-10T10:34:07.851Z,64.45
2019-05-10T10:36:40.384Z,63.56
2019-05-10T10:39:07.578Z,63.33
2019-05-10T10:41:35.869Z,62.45
2019-05-10T10:44:04.059Z,59.28
2019-05-10T10:46:34.569Z,61.78
2019-05-10T10:49:02.193Z,58.67
2019-05-10T10:51:32.243Z,55.43
2019-05-10T10:54:00.322Z,56.72
2019-05-10T10:56:28.482Z,57.02
2019-05-10T10:58:58.094Z,55.96
2019-05-10T11:01:37.898Z,56.37
2019-05-10T11:03:56.696Z,56.42
2019-05-10T11:09:40.995Z,56.89
2019-05-10T11:12:14.698Z,57.10
2019-05-10T11:14:45.177Z,56.16
2019-05-10T11:17:11.188Z,58.42
2019-05-10T11:19:41.737Z,57.65
2019-05-10T11:22:10.904Z,58.06
2019-05-10T11:24:39.175Z,59.84
2019-05-10T11:27:15.176Z,56.60
2019-05-10T11:29:37.239Z,58.07
2019-05-10T11:32:16.648Z,58.30
2019-05-10T11:34:38.991Z,58.39
2019-05-10T11:37:05.202Z,54.28
2019-05-10T11:39:41.811Z,56.51
2019-05-10T11:42:07.154Z,55.81
2019-05-10T11:44:41.461Z,56.22
2019-05-10T11:47:21.017Z,55.02
2019-05-10T11:49:40.659Z,55.86
2019-05-10T11:52:10.792Z,57.42
2019-05-10T11:54:38.440Z,58.42
2019-05-10T11:57:10.979Z,56.30
2019-05-10T11:59:41.237Z,58.28
2019-05-10T12:02:10.398Z,55.81
2019-05-10T12:04:39.501Z,57.92
2019-05-10T12:09:36.774Z,54.44
2019-05-10T12:12:05.031Z,53.60
2019-05-10T12:14:33.197Z,53.59
2019-05-10T12:17:05.624Z,54.26
2019-05-10T12:19:36.629Z,53.72
2019-05-10T12:22:04.712Z,57.45
2019-05-10T12:26:13.467Z,51.88
2019-05-10T12:26:24.688Z,55.59
2019-05-10T12:27:18.622Z,56.04
2019-05-10T12:29:31.658Z,58.44
2019-05-10T12:31:59.936Z,57.92
2019-05-10T12:34:30.990Z,52.77
2019-05-10T12:37:03.817Z,53.10
2019-05-10T12:39:30.841Z,48.98
2019-05-10T12:41:58.255Z,49.91
2019-05-10T12:44:26.432Z,51.96
2019-05-10T12:46:54.611Z,51.90
2019-05-10T12:49:22.750Z,48.70
2019-05-10T12:51:51.486Z,50.19
2019-05-10T12:54:23.932Z,51.00
2019-05-10T12:56:49.946Z,46.28
2019-05-10T12:59:18.038Z,46.89
2019-05-10T13:01:46.195Z,45.68
2019-05-10T13:04:16.781Z,55.29
2019-05-10T13:06:44.193Z,48.18
2019-05-10T13:09:12.332Z,50.48
2019-05-10T13:11:40.416Z,54.71
2019-05-10T13:14:09.666Z,51.74
2019-05-10T13:16:38.044Z,45.42
2019-05-10T13:19:06.139Z,45.76
2019-05-10T13:21:34.259Z,53.50
2019-05-10T13:24:02.375Z,45.17
2019-05-10T13:26:30.521Z,52.35
2019-05-10T13:29:02.250Z,48.19
2019-05-10T13:31:28.586Z,42.14
2019-05-10T13:33:56.743Z,46.15
2019-05-10T13:36:30.529Z,51.11
2019-05-10T13:38:54.805Z,46.50
2019-05-10T13:41:23.927Z,47.31
2019-05-10T13:43:52.964Z,47.03
2019-05-10T13:46:21.137Z,50.06
2019-05-10T13:48:49.312Z,53.91
2019-05-10T13:51:17.476Z,51.67
2019-05-10T13:53:46.263Z,44.51
2019-05-10T13:56:14.351Z,43.32
2019-05-10T13:58:42.524Z,51.67
2019-05-10T14:01:13.101Z,53.87
2019-05-10T14:03:44.399Z,49.73
2019-05-10T14:06:10.426Z,49.78
2019-05-10T14:08:42.796Z,44.33
2019-05-10T14:11:08.596Z,50.07
2019-05-10T14:13:41.358Z,45.27
2019-05-10T14:16:06.618Z,45.52
2019-05-10T14:18:34.698Z,42.58
2019-05-10T14:21:02.990Z,42.58
2019-05-10T14:23:35.474Z,42.21
2019-05-10T14:26:01.044Z,42.55
2019-05-10T14:28:29.701Z,41.46
2019-05-10T14:30:59.001Z,50.41
2019-05-10T14:33:27.378Z,42.36
2019-05-10T14:36:00.942Z,47.04
2019-05-10T14:38:25.407Z,40.59
2019-05-10T14:40:53.683Z,47.09
2019-05-10T14:43:21.824Z,47.09
2019-05-10T14:45:49.973Z,42.69
2019-05-10T14:48:27.829Z,49.10
2019-05-10T14:50:47.965Z,46.23
2019-05-10T14:53:19.904Z,52.34
2019-05-10T14:55:46.209Z,43.88
2019-05-10T14:58:14.429Z,43.35
2019-05-10T15:00:42.622Z,50.63
2019-05-10T15:03:10.802Z,47.97
2019-05-10T15:05:38.912Z,47.97
2019-05-10T15:08:07.120Z,50.62
2019-05-10T15:10:39.543Z,48.59
2019-05-10T15:13:05.139Z,48.46
2019-05-10T15:15:37.044Z,52.52
2019-05-10T15:18:03.659Z,47.13
2019-05-10T15:20:35.504Z,49.38
2019-05-10T15:23:01.815Z,50.90
2019-05-10T15:25:30.000Z,54.19
2019-05-10T15:28:00.215Z,49.19
2019-05-10T15:30:28.187Z,45.63
2019-05-10T15:32:56.411Z,46.08
2019-05-10T15:35:24.640Z,49.02
2019-05-10T15:37:52.829Z,47.82
2019-05-10T15:40:21.063Z,46.88
2019-05-10T15:42:49.194Z,46.88
2019-05-10T15:45:19.504Z,49.25
2019-05-10T15:47:51.402Z,54.27
2019-05-10T15:50:17.501Z,56.59
2019-05-10T15:52:46.790Z,54.21
2019-05-10T15:55:17.142Z,48.89
2019-05-10T15:57:45.691Z,47.83
2019-05-10T16:00:14.203Z,46.75
2019-05-10T16:02:42.402Z,46.05
2019-05-10T16:05:24.107Z,50.25
2019-05-10T16:07:40.641Z,47.06
2019-05-10T16:10:09.198Z,47.04
2019-05-10T16:12:42.645Z,53.33
2019-05-10T16:15:06.698Z,53.33
2019-05-10T16:17:34.934Z,52.47
2019-05-10T16:20:03.271Z,48.95
2019-05-10T16:22:32.027Z,55.37
2019-05-10T16:25:02.576Z,47.38
2019-05-10T16:27:34.139Z,50.58
2019-05-10T16:30:00.327Z,52.50
2019-05-10T16:32:29.163Z,52.37
2019-05-10T16:34:58.351Z,52.89
2019-05-10T16:37:26.464Z,55.06
2019-05-10T16:39:54.913Z,54.31
2019-05-10T16:42:27.930Z,56.17
2019-05-10T16:44:53.031Z,50.51
2019-05-10T16:47:21.308Z,50.52
2019-05-10T16:49:53.483Z,52.08
2019-05-10T16:52:25.059Z,52.56
2019-05-10T16:54:49.213Z,51.33
2019-05-10T16:57:17.565Z,51.57
2019-05-10T16:59:46.312Z,55.43
2019-05-10T17:02:14.447Z,54.17
2019-05-10T17:04:42.613Z,51.24
2019-05-10T17:07:13.065Z,51.55
2019-05-10T17:09:39.972Z,53.99
2019-05-10T17:12:08.156Z,51.64
2019-05-10T17:14:36.503Z,48.94
2019-05-10T17:17:04.695Z,48.94
2019-05-10T17:19:33.907Z,49.10
2019-05-10T17:22:02.935Z,49.10
2019-05-10T17:24:31.509Z,50.36
2019-05-10T17:26:59.830Z,50.20
2019-05-10T17:29:27.975Z,51.37
2019-05-10T17:31:56.173Z,52.16
2019-05-10T17:34:29.328Z,50.71
2019-05-10T17:36:57.783Z,54.25
2019-05-10T17:39:26.080Z,52.01
2019-05-10T17:41:57.626Z,52.12
2019-05-10T17:44:24.899Z,52.39
2019-05-10T17:46:55.583Z,51.74
2019-05-10T17:49:23.228Z,55.13
2019-05-10T17:51:51.411Z,54.25
2019-05-10T17:54:19.541Z,52.05
2019-05-10T17:56:47.653Z,50.61
2019-05-10T17:59:15.919Z,50.34
2019-05-10T18:01:44.048Z,50.30
2019-05-10T18:04:12.201Z,49.35
2019-05-10T18:06:40.572Z,49.42
2019-05-10T18:09:08.723Z,49.99
2019-05-10T18:11:42.612Z,50.17
2019-05-10T18:14:06.770Z,50.00
2019-05-10T18:16:34.851Z,50.08
2019-05-10T18:19:03.298Z,51.52
2019-05-10T18:21:31.465Z,50.29
2019-05-10T18:23:59.855Z,50.32
2019-05-10T18:26:28.015Z,51.20
2019-05-10T18:28:56.078Z,50.99
2019-05-10T18:31:24.430Z,56.29
2019-05-10T18:33:54.387Z,55.71
2019-05-10T18:36:24.796Z,54.56
2019-05-10T18:38:52.288Z,52.37
2019-05-10T18:41:20.473Z,52.00
2019-05-10T18:43:48.621Z,52.39
2019-05-10T18:46:16.833Z,52.24
2019-05-10T18:48:46.113Z,51.98
2019-05-10T18:51:18.061Z,52.95
2019-05-10T18:53:44.127Z,53.76
2019-05-10T18:56:12.272Z,53.16
2019-05-10T18:58:40.403Z,53.14
2019-05-10T19:01:08.686Z,53.45
2019-05-10T19:03:37.566Z,53.00
2019-05-10T19:06:11.127Z,52.80
2019-05-10T19:08:35.645Z,53.15
2019-05-10T19:11:04.341Z,53.42
2019-05-10T19:13:34.575Z,53.49
2019-05-10T19:16:02.682Z,52.96
2019-05-10T19:18:30.836Z,53.43
2019-05-10T19:20:59.142Z,53.41
2019-05-10T19:23:27.292Z,53.68
2019-05-10T19:25:55.416Z,53.83
2019-05-10T19:28:26.801Z,53.81
2019-05-10T19:30:58.604Z,53.93
2019-05-10T19:33:23.402Z,53.99
2019-05-10T19:35:51.562Z,55.49
2019-05-10T19:38:19.795Z,54.32
2019-05-10T19:40:47.968Z,54.31
2019-05-10T19:43:21.770Z,54.02
2019-05-10T19:45:51.227Z,54.05
2019-05-10T19:48:15.975Z,54.03
2019-05-10T19:50:45.425Z,53.96
2019-05-10T19:53:13.724Z,54.25
2019-05-10T19:55:41.866Z,58.64
2019-05-10T19:58:10.031Z,57.05
2019-05-10T20:00:38.255Z,55.35
2019-05-10T20:03:06.765Z,54.76
2019-05-10T20:05:34.955Z,54.65
2019-05-10T20:08:03.154Z,54.74
2019-05-10T20:10:31.262Z,54.93
2019-05-10T20:12:59.474Z,54.42
2019-05-10T20:15:27.605Z,54.97
2019-05-10T20:17:56.028Z,62.45
2019-05-10T20:20:24.521Z,58.86
2019-05-10T20:22:53.223Z,63.09
2019-05-10T20:25:21.499Z,56.15
2019-05-10T20:27:49.672Z,55.45
2019-05-10T20:30:17.945Z,55.23
2019-05-10T20:32:47.754Z,55.18
2019-05-10T20:35:15.962Z,55.07
2019-05-10T20:38:01.250Z,62.14
2019-05-10T20:40:20.817Z,59.87
2019-05-10T20:42:49.053Z,58.32
2019-05-10T20:45:17.241Z,56.49
2019-05-10T20:47:45.511Z,55.86
2019-05-10T20:50:13.780Z,55.89
2019-05-10T20:52:41.944Z,55.57
2019-05-10T20:55:10.627Z,55.63
2019-05-10T20:57:38.731Z,56.51
2019-05-10T21:00:07.728Z,56.42
2019-05-10T21:02:35.839Z,55.74
2019-05-10T21:05:04.093Z,55.64
2019-05-10T21:07:32.238Z,57.85
2019-05-10T21:10:00.381Z,56.96
2019-05-10T21:12:28.485Z,60.55
2019-05-10T21:14:56.600Z,57.49
2019-05-10T21:17:24.870Z,60.09
2019-05-10T21:19:52.947Z,56.48
2019-05-10T21:22:21.095Z,55.79
2019-05-10T21:24:49.375Z,55.93
2019-05-10T21:27:17.516Z,55.82
2019-05-10T21:29:45.831Z,56.17
2019-05-10T21:32:14.139Z,55.90
2019-05-10T21:34:42.343Z,55.87
2019-05-10T21:37:10.595Z,55.88
2019-05-10T21:39:39.579Z,55.77
2019-05-10T21:42:07.729Z,56.27
2019-05-10T21:44:35.908Z,56.00
2019-05-10T21:47:04.028Z,56.03
2019-05-10T21:49:32.159Z,67.03
2019-05-10T21:52:00.346Z,56.93
2019-05-10T21:54:28.528Z,56.92
2019-05-10T21:56:56.737Z,60.73
2019-05-10T21:59:24.910Z,66.10
2019-05-10T22:01:53.118Z,72.44
2019-05-10T22:04:21.360Z,61.63
2019-05-10T22:06:49.521Z,72.50
2019-05-10T22:09:17.628Z,58.91
2019-05-10T22:11:46.035Z,59.61
2019-05-10T22:14:14.419Z,57.67
2019-05-10T22:16:42.540Z,56.98
2019-05-10T22:19:10.713Z,56.88
2019-05-10T22:21:38.822Z,56.73
2019-05-10T22:24:07.017Z,56.42
2019-05-10T22:26:35.171Z,56.64
2019-05-10T22:29:03.333Z,56.38
2019-05-10T22:31:31.528Z,56.43
2019-05-10T22:33:59.653Z,56.41
2019-05-10T22:36:27.807Z,56.01
2019-05-10T22:39:06.525Z,56.15
2019-05-10T22:41:25.795Z,56.45
2019-05-10T22:43:54.009Z,56.05
2019-05-10T22:46:22.124Z,57.24
2019-05-10T22:48:50.316Z,55.76
2019-05-10T22:51:18.684Z,55.61
2019-05-10T22:53:59.080Z,55.69
2019-05-10T22:56:16.892Z,55.74
2019-05-10T22:58:45.267Z,55.76
2019-05-10T23:01:13.379Z,55.95
2019-05-10T23:03:41.558Z,55.50
2019-05-10T23:06:09.919Z,55.59
2019-05-10T23:08:38.062Z,56.02
2019-05-10T23:11:07.415Z,72.19
2019-05-10T23:13:39.384Z,63.42
2019-05-10T23:16:07.551Z,57.38
2019-05-10T23:18:35.712Z,67.54
2019-05-10T23:21:03.943Z,57.24
2019-05-10T23:23:32.083Z,72.35
2019-05-10T23:26:00.278Z,57.54
2019-05-10T23:28:28.779Z,56.57
2019-05-10T23:30:56.948Z,59.04
2019-05-10T23:33:25.087Z,58.10
2019-05-10T23:35:53.242Z,56.55
2019-05-10T23:38:21.420Z,56.59
2019-05-10T23:40:49.542Z,56.46
2019-05-10T23:43:17.759Z,55.63
2019-05-10T23:45:45.907Z,61.72
2019-05-10T23:48:14.150Z,56.76
2019-05-10T23:50:42.430Z,57.70
2019-05-10T23:53:10.674Z,57.24
2019-05-10T23:55:38.842Z,56.40
2019-05-10T23:58:06.958Z,55.83
